Dolliver, Iowa
Current Conditions -  °F | °C
As of 2:52 PM on Tuesday 25 Nov 2014 (Local Time) from KEST Reporting Station
Clear Clear  
Wind Chill: 24°   Ceiling: Unl
Heat Index: 33°   Visibility: 10mi
Dew Point:   Wind: 12mph
Humidity: 35%   Direction: 170°S
Pressure: 29.97"   Gusts: NA
Location:  43.46°N, 94.63°W
Report Text: KEST 252052Z AUTO 17010KT 10SM CLR 01/M13 A2997 RMK AO2 SLP169 T00061133 56022
Loading
Personal Weather Stations






























Interactive Weather Map New forecast layout! Learn more

10-Day Weather Forecast

Advertisements
Track Severe Weather on mobile